Weather observations for the past three days for
Taylorville, Taylorville Municipal Airport
Metric (Imperial)
Date Time (cdt) Wind (kph) Vis. (km) Weather Sky Cond. Temperature (ºC) Relative Humidity Wind Chill (°C) Heat Index (°C) Pressure Precipitation (cm)
Air Dwpt 6 hour altimeter (cm) sea level (mb) 1 hr 3 hr 6 hr
Max. Min.
05 05:59 Calm 16.09 Overcast SCT075 OVC085 11 7 77% 75.67 0.0 0.03
05 05:39 NW 9 16.09 Overcast BKN075 OVC085 11 7 77% 75.67 0.0 0.05
05 05:20 SW 17 16.09 Thunderstorm in Vicinity OVC075 12 8 77% 75.69 0.0
05 05:01 N 22 16.09 Overcast BKN075 BKN085 OVC110 12 7 72% 75.54 0.0
05 04:39 N 26 16.09 Mostly Cloudy SCT090 BKN110 13 9 77% 75.51 0.0
05 04:19 N 24 G 30 16.09 Mostly Cloudy BKN100 14 11 82% 75.46 0.0
05 03:59 N 24 G 31 16.09 Mostly Cloudy BKN110 14 12 88% 75.39 0.0
05 03:39 N 19 16.09 Fair CLR 14 13 94% 75.41 0.0
05 03:19 NW 11 16.09 Fair CLR 14 13 94% 75.41 0.0
05 03:01 W 11 16.09 Fair CLR 14 13 94% 75.44 0.0
05 02:39 W 9 16.09 Partly Cloudy SCT090 SCT120 14 13 94% 75.46 0.0 0.15
05 02:19 S 17 16.09 Overcast OVC090 14 13 94% 75.36 0.0 0.13
05 02:00 SW 15 16.09 Overcast SCT060 OVC090 14 12 88% 75.49 0.0
05 01:39 SW 13 16.09 Thunderstorm BKN060 BKN075 OVC120 14 12 88% 75.44 0.0 0.03
05 00:59 SW 7 16.09 Thunderstorm SCT041 BKN090 OVC110 16 13 83% 75.39 0.0
05 00:39 S 13 G 26 4.83 Thunderstorm SCT019 BKN042 OVC080 17 13 77% 75.36 0.0 0.61
05 00:19 W 17 16.09 Thunderstorm SCT038 BKN065 OVC080 18 13 73% 75.31 0.0
04 23:59 S 35 G 43 16.09 Thunderstorm and Breezy OVC065 19 13 68% 75.16 0.0
04 23:39 S 28 G 33 16.09 Mostly Cloudy BKN065 BKN075 BKN090 19 13 68% 75.18 0.0
04 23:19 SW 28 16.09 Mostly Cloudy BKN065 BKN090 BKN110 19 13 68% 75.18 0.0
04 23:00 SW 26 G 35 16.09 Thunderstorm in Vicinity BKN065 19 13 68% 75.18 0.0
04 22:39 S 24 G 33 16.09 Thunderstorm in Vicinity BKN065 BKN090 19 13 68% 75.18 0.0
04 22:19 S 22 G 35 16.09 Thunderstorm in Vicinity OVC070 19 13 68% 75.18 0.0
04 21:59 S 24 16.09 Thunderstorm in Vicinity BKN070 OVC085 19 13 68% 75.18 0.0
04 21:40 S 20 G 28 16.09 Thunderstorm in Vicinity BKN070 OVC095 18 14 78% 75.16 0.0 0.03
04 21:20 S 24 G 35 16.09 Thunderstorm in Vicinity BKN070 OVC080 19 13 68% 75.16 0.0
04 20:59 S 19 G 26 16.09 Thunderstorm in Vicinity OVC070 19 13 68% 75.16 0.0
04 20:19 S 20 16.09 Mostly Cloudy BKN070 BKN085 21 12 57% 75.16 0.0
04 20:00 S 22 G 33 16.09 Mostly Cloudy BKN070 BKN085 BKN110 20 12 60% 75.13 0.0
04 19:40 S 30 G 44 16.09 Mostly Cloudy SCT070 BKN085 BKN110 19 13 68% 75.13 0.0
04 19:20 S 37 G 50 16.09 Mostly Cloudy and Breezy BKN070 BKN085 22 12 53% 75.13 0.0
04 19:01 S 20 G 28 16.09 Thunderstorm in Vicinity OVC070 22 13 57% 75.13 0.0
04 18:39 S 15 16.09 Overcast OVC070 22 13 57% 75.16 0.0
04 18:19 S 15 16.09 Overcast OVC070 22 13 57% 75.18 0.0
04 17:59 S 15 16.09 Overcast OVC070 22 13 57% 75.21 0.0
04 17:40 S 22 16.09 Overcast BKN070 OVC080 22 13 57% 75.21 0.0
04 17:19 S 19 G 39 16.09 Mostly Cloudy BKN080 23 13 53% 75.23 0.0
04 16:59 S 35 G 44 16.09 Fair and Breezy CLR 23 13 53% 75.23 0.0
04 16:43 S 35 G 44 16.09 Partly Cloudy and Breezy SCT070 23 13 53% 75.23 0.0
04 16:19 S 30 G 41 16.09 Partly Cloudy SCT070 23 13 53% 75.26 0.0
04 15:59 S 33 G 46 16.09 Overcast and Breezy OVC070 23 13 53% 75.29 0.0
04 15:39 S 35 G 48 16.09 Mostly Cloudy and Breezy BKN070 23 13 53% 75.29 0.0
04 15:19 S 33 G 52 16.09 Fair and Breezy CLR 23 13 53% 75.31 0.0
04 14:59 S 35 G 48 16.09 Partly Cloudy and Breezy SCT070 23 13 53% 75.29 0.0
04 14:43 S 39 G 54 16.09 Mostly Cloudy and Breezy BKN070 BKN080 22 13 57% 75.34 0.0
04 14:19 SW 35 G 52 16.09 Partly Cloudy and Breezy SCT070 SCT080 22 13 57% 75.36 0.0
04 14:02 S 33 G 48 16.09 Fair and Breezy CLR 22 13 57% 75.36 0.0
04 13:39 SW 37 G 48 16.09 Partly Cloudy and Breezy SCT090 21 13 60% 75.39 0.0
04 13:19 SW 35 G 41 16.09 Mostly Cloudy and Breezy BKN090 22 13 57% 75.39 0.0
04 13:00 SW 30 G 41 16.09 Mostly Cloudy BKN100 22 13 57% 75.36 0.0
04 12:39 SW 31 G 39 16.09 Thunderstorm in Vicinity SCT100 22 13 57% 75.36 0.0
04 12:20 SW 28 16.09 Partly Cloudy SCT110 22 14 61% 75.41 0.0
04 11:59 S 24 G 31 16.09 Mostly Cloudy BKN110 21 14 64% 75.44 0.0
04 11:39 S 20 G 31 16.09 Thunderstorm in Vicinity SCT065 OVC110 18 13 73% 75.44 0.0
04 11:20 S 17 16.09 Overcast SCT080 OVC110 18 14 78% 75.46 0.0
04 10:43 S 17 G 26 16.09 Overcast SCT035 SCT065 OVC095 17 13 77% 75.46 0.0 0.08
04 10:21 S 20 11.27 Thunderstorm in Vicinity SCT028 SCT047 OVC095 16 13 83% 75.46 0.0 0.08
04 09:59 S 19 G 30 16.09 Thunderstorm in Vicinity OVC095 15 12 82% 75.44 0.0
04 09:39 S 24 8.05 Thunderstorm in Vicinity OVC095 14 12 88% 75.46 0.0 0.28
04 09:19 S 33 16.09 Thunderstorm and Breezy SCT085 OVC095 14 12 88% 75.41 0.0 0.03
04 09:04 S 33 G 50 16.09 Overcast and Breezy SCT085 OVC095 14 11 82% 75.41 0.0 0.03
04 08:40 S 33 G 39 16.09 Overcast and Breezy BKN085 OVC110 15 11 77% 75.49 0.0
04 08:20 S 28 G 41 16.09 Overcast SCT049 BKN100 OVC120 15 11 77% 75.49 0.0
04 08:00 S 30 16.09 Thunderstorm SCT090 SCT120 15 11 77% 75.54 0.0
04 07:39 SW 30 G 39 16.09 Mostly Cloudy SCT075 SCT090 BKN110 15 11 77% 75.54 0.0
04 07:19 S 28 16.09 Thunderstorm in Vicinity BKN090 BKN120 15 11 77% 75.51 0.0
04 06:59 S 24 G 30 16.09 Partly Cloudy SCT110 14 11 82% 75.51 0.0
04 06:40 S 22 G 37 16.09 Fair CLR 14 11 82% 75.51 0.0
04 06:21 S 22 G 35 16.09 Fair CLR 14 11 82% 75.51 0.0
04 06:00 S 20 16.09 Fair CLR 14 11 82% 75.54 0.0
04 05:39 S 19 16.09 Fair CLR 14 11 82% 75.54 0.0
04 05:19 S 17 16.09 Fair CLR 14 11 82% 75.54 0.0
04 04:59 S 13 16.09 Fair CLR 14 11 82% 75.51 0.0
04 04:39 S 20 16.09 Partly Cloudy SCT090 SCT120 14 11 82% 75.54 0.0
04 04:19 W 11 16.09 Thunderstorm SCT080 BKN100 14 11 82% 75.59 0.0
04 04:02 SW 15 16.09 Mostly Cloudy SCT080 BKN100 15 11 77% 75.54 0.0
04 03:39 SW 24 16.09 Thunderstorm SCT090 BKN110 14 11 82% 75.59 0.0
04 03:21 SW 15 G 31 16.09 Overcast SCT090 OVC120 15 11 77% 75.57 0.0
04 03:01 S 9 16.09 Thunderstorm BKN090 OVC110 14 12 88% 75.54 0.0
04 02:40 SW 9 16.09 Thunderstorm BKN090 BKN120 13 11 88% 75.64 0.0
04 02:20 S 6 16.09 Thunderstorm in Vicinity SCT080 SCT085 BKN110 13 11 88% 75.59 0.0
04 01:59 S 6 16.09 Partly Cloudy SCT075 SCT090 SCT110 13 11 88% 75.62 0.0
04 01:39 S 11 16.09 Thunderstorm in Vicinity SCT049 SCT070 SCT110 13 10 82% 75.62 0.0 0.13
04 01:22 S 13 11.27 Thunderstorm in Vicinity SCT049 SCT080 BKN085 13 10 82% 75.64 0.0 0.13
04 01:00 S 15 16.09 Overcast BKN075 OVC085 14 9 72% 75.64 0.0
04 00:42 S 13 16.09 Mostly Cloudy SCT075 BKN085 14 9 72% 75.67 0.0
04 00:19 S 17 16.09 Partly Cloudy SCT075 SCT110 14 9 72% 75.67 0.0
04 00:01 SE 6 16.09 Mostly Cloudy SCT075 BKN100 14 9 72% 75.64 0.0
03 23:41 SE 7 16.09 Mostly Cloudy SCT085 BKN100 15 9 68% 75.64 0.0
03 23:19 Calm 16.09 Mostly Cloudy SCT075 BKN085 BKN110 15 9 68% 75.69 0.0
03 22:59 SE 7 16.09 Partly Cloudy SCT080 SCT090 SCT120 15 9 68% 75.69 0.0
03 22:39 SW 7 16.09 Thunderstorm in Vicinity SCT080 SCT100 BKN120 16 9 63% 75.74 0.0
03 22:19 S 13 16.09 Overcast SCT075 OVC100 16 9 63% 75.74 0.0
03 21:59 SE 9 16.09 Overcast SCT075 OVC110 16 9 63% 75.74 0.0
03 21:39 SE 7 16.09 Overcast OVC110 17 9 60% 75.74 0.0
03 21:19 SE 13 16.09 Thunderstorm in Vicinity SCT100 OVC120 17 8 56% 75.72 0.0
03 20:59 S 6 16.09 Overcast SCT075 SCT090 OVC110 17 8 56% 75.72 0.0
03 20:39 SE 7 16.09 Overcast SCT075 BKN090 OVC110 17 8 56% 75.72 0.0
03 20:19 SE 15 16.09 Thunderstorm in Vicinity SCT075 BKN100 OVC120 17 8 56% 75.69 0.0
03 19:59 SE 11 16.09 Overcast SCT075 OVC100 18 8 52% 75.69 0.0
03 19:39 SE 13 16.09 Overcast BKN075 BKN090 OVC110 19 8 49% 75.69 0.0
03 19:20 S 11 16.09 Overcast BKN075 BKN090 OVC110 19 7 46% 75.69 0.0
03 18:59 S 17 16.09 Thunderstorm in Vicinity SCT075 BKN090 OVC110 19 7 46% 75.69 0.0
03 18:40 S 15 16.09 Overcast SCT075 OVC110 20 7 43% 75.69 0.0
03 18:19 S 19 G 26 16.09 Partly Cloudy SCT120 21 6 38% 75.69 0.0
03 17:59 S 26 16.09 Partly Cloudy SCT080 SCT120 21 6 38% 75.72 0.0
03 17:42 S 24 G 41 16.09 Partly Cloudy SCT080 22 6 36% 75.72 0.0
03 17:19 SW 24 G 43 16.09 Fair CLR 22 6 36% 75.74 0.0
03 16:59 SW 26 16.09 Fair CLR 22 6 36% 75.74 0.0
03 16:40 SW 33 G 44 16.09 Fair and Breezy CLR 22 5 33% 75.77 0.0
03 16:20 S 35 G 44 16.09 Fair and Breezy CLR 21 4 33% 75.77 0.0
03 15:59 SW 37 G 48 16.09 Fair and Breezy CLR 21 4 33% 75.79 0.0
03 15:39 SW 35 G 46 16.09 Partly Cloudy and Breezy SCT028 SCT110 21 4 33% 75.82 0.0
03 15:22 S 35 G 48 16.09 Mostly Cloudy and Breezy SCT021 SCT030 BKN100 19 4 37% 75.82 0.0
03 15:01 S 31 G 54 16.09 Mostly Cloudy SCT020 SCT030 BKN100 19 4 37% 75.84 0.0
03 14:40 S 33 G 54 16.09 Mostly Cloudy and Breezy BKN100 19 4 37% 75.87 0.0
03 14:20 S 33 G 43 16.09 Mostly Cloudy and Breezy BKN110 19 4 37% 75.87 0.0
03 14:01 S 33 G 52 16.09 Mostly Cloudy and Breezy BKN110 18 4 40% 75.9 0.0
03 13:40 SW 37 G 50 16.09 Mostly Cloudy and Breezy BKN110 18 4 40% 76 0.0
03 13:21 SW 41 G 54 16.09 Mostly Cloudy and Breezy BKN120 17 3 39% 76 0.0
03 13:00 S 37 G 48 16.09 Partly Cloudy and Breezy SCT120 18 4 40% 76.05 0.0
03 12:39 SW 31 G 44 16.09 Partly Cloudy SCT120 18 5 43% 76.12 0.0
03 12:19 SW 35 G 44 16.09 Partly Cloudy and Breezy SCT120 18 5 43% 76.17 0.0
03 12:00 S 37 G 44 16.09 Partly Cloudy and Breezy SCT120 17 4 42% 76.2 0.0
03 11:20 S 28 G 48 16.09 Partly Cloudy SCT120 16 4 45% 76.23 0.0
03 10:59 S 28 G 41 16.09 Partly Cloudy SCT120 16 5 48% 76.28 0.0
03 10:41 SW 28 G 39 16.09 Fair CLR 16 5 48% 76.3 0.0
03 10:19 SW 30 G 43 16.09 Fair CLR 15 4 48% 76.3 0.0
03 09:59 S 28 G 39 16.09 Fair CLR 14 5 55% 76.33 0.0
03 09:42 S 26 16.09 Fair CLR 14 5 55% 76.33 0.0
03 09:19 S 28 G 35 16.09 Fair CLR 13 5 59% 76.33 0.0
03 09:00 S 26 16.09 Fair CLR 12 5 63% 76.35 0.0
03 08:39 S 24 G 35 16.09 Partly Cloudy SCT110 11 5 67% 76.35 0.0
03 08:19 S 22 G 33 16.09 Fair CLR 11 5 67% 76.38 0.0
03 07:59 S 26 G 37 16.09 Partly Cloudy SCT120 9 4 71% 6 76.38 0.0
03 07:39 S 19 16.09 Partly Cloudy SCT120 9 5 76% 7 76.4 0.0
03 07:19 S 19 16.09 Fair CLR 8 4 76% 5 76.38 0.0
03 06:59 S 17 16.09 Fair CLR 8 4 76% 6 76.35 0.0
03 06:39 S 15 16.09 Fair CLR 7 4 81% 5 76.33 0.0
03 06:19 S 13 16.09 Fair CLR 6 4 87% 4 76.33 0.0
03 05:59 S 15 16.09 Fair CLR 6 4 87% 3 76.33 0.0
03 05:39 S 15 16.09 Fair CLR 6 3 81% 3 76.33 0.0
03 05:19 S 11 16.09 Fair CLR 6 3 81% 4 76.33 0.0
03 04:39 S 13 16.09 Fair CLR 6 3 81% 4 76.35 0.0
03 04:19 S 11 16.09 Fair CLR 6 3 81% 4 76.38 0.0
03 03:59 S 13 16.09 Fair CLR 6 3 81% 4 76.38 0.0
03 03:39 S 11 16.09 Fair CLR 6 3 81% 4 76.4 0.0
03 03:20 S 13 16.09 Fair CLR 6 2 76% 4 76.4 0.0
03 03:00 S 11 16.09 Fair CLR 6 2 76% 4 76.4 0.0
03 02:40 S 13 16.09 Fair CLR 6 3 81% 4 76.4 0.0
03 02:19 S 11 16.09 Fair CLR 6 3 81% 4 76.4 0.0
03 01:59 S 9 16.09 Fair CLR 6 2 76% 4 76.4 0.0
03 01:39 S 9 16.09 Fair CLR 6 2 76% 4 76.43 0.0
03 01:20 S 7 16.09 Fair CLR 6 2 76% 5 76.43 0.0
03 01:00 S 9 16.09 Fair CLR 6 2 76% 4 76.43 0.0
03 00:39 S 6 16.09 Fair CLR 7 2 71% 76.45 0.0
03 00:19 Calm 16.09 Fair CLR 7 2 71% 76.45 0.0
02 23:59 S 6 16.09 Fair CLR 7 2 71% 76.45 0.0
02 23:39 Calm 16.09 Fair CLR 7 3 76% 76.45 0.0
02 23:19 Calm 16.09 Fair CLR 6 4 87% 76.45 0.0
02 22:59 S 6 16.09 Fair CLR 6 4 87% 76.45 0.0
02 22:39 Calm 16.09 Fair CLR 6 4 87% 76.45 0.0
02 22:21 Calm 16.09 Fair CLR 7 4 81% 76.45 0.0
02 21:59 Calm 16.09 Partly Cloudy SCT070 7 4 81% 76.45 0.0
02 21:40 Calm 16.09 Partly Cloudy SCT070 8 2 66% 76.45 0.0
02 21:19 Calm 16.09 Fair CLR 8 3 71% 76.45 0.0
02 20:59 Calm 16.09 Fair CLR 8 3 71% 76.43 0.0
02 20:39 Calm 16.09 Fair CLR 10 0 50% 76.43 0.0
02 20:19 Calm 16.09 Fair CLR 11 2 54% 76.43 0.0
02 19:59 Calm 16.09 Fair CLR 11 1 50% 76.4 0.0
02 19:39 N 7 16.09 Partly Cloudy SCT080 12 0 44% 76.4 0.0
02 19:19 W 6 16.09 Partly Cloudy SCT080 13 1 44% 76.4 0.0
02 19:01 NW 11 16.09 Partly Cloudy SCT080 13 -1 38% 76.4 0.0
02 18:39 NW 13 16.09 Partly Cloudy SCT080 14 -2 33% 76.4 0.0
02 18:20 W 13 16.09 Fair CLR 14 -2 33% 76.4 0.0
02 18:00 NW 11 16.09 Partly Cloudy SCT085 14 -1 36% 76.4 0.0
02 17:42 NW 9 16.09 Partly Cloudy SCT085 14 -1 36% 76.4 0.0
02 17:21 NW 13 16.09 Partly Cloudy SCT075 SCT085 14 -1 36% 76.4 0.0
02 17:00 N 15 16.09 Mostly Cloudy SCT075 BKN090 13 -1 38% 76.4 0.0
02 16:40 N 6 16.09 Mostly Cloudy SCT075 BKN090 14 -1 36% 76.4 0.0
02 16:19 NW 11 16.09 Overcast OVC090 13 -1 38% 76.43 0.0
02 15:59 W 11 16.09 Mostly Cloudy BKN090 13 -2 36% 76.43 0.0
02 15:41 N 6 16.09 Mostly Cloudy SCT075 BKN090 14 0 39% 76.45 0.0
02 15:19 N 11 G 17 16.09 Overcast BKN065 OVC090 13 0 41% 76.45 0.0
02 15:00 N 7 16.09 Mostly Cloudy SCT065 BKN090 13 -1 38% 76.45 0.0
02 14:40 NW 11 16.09 Overcast BKN080 OVC090 13 -1 38% 76.48 0.0
02 14:19 NE 13 16.09 Mostly Cloudy SCT080 BKN090 13 0 41% 76.48 0.0
02 14:00 NE 6 16.09 Partly Cloudy SCT060 SCT090 12 0 44% 76.48 0.0
02 13:42 NE 11 G 26 16.09 Mostly Cloudy SCT060 BKN080 12 1 47% 76.5 0.0
02 13:20 NE 11 16.09 Overcast SCT060 SCT070 OVC080 12 1 47% 76.5 0.0
02 13:00 N 15 16.09 Overcast SCT050 OVC080 12 2 51% 76.5 0.0
02 12:20 NE 13 16.09 Mostly Cloudy SCT048 SCT060 BKN080 12 1 47% 76.53 0.0
02 12:01 N 11 16.09 Partly Cloudy SCT048 SCT060 SCT080 12 2 51% 76.53 0.0
02 11:41 NE 15 16.09 Partly Cloudy SCT043 SCT050 12 3 54% 76.56 0.0
02 11:20 N 7 16.09 Fair CLR 12 2 51% 76.56 0.0
02 10:59 N 9 16.09 Fair CLR 12 2 51% 76.56 0.0
02 10:39 NE 11 16.09 Fair CLR 12 3 54% 76.56 0.0
02 10:20 E 13 16.09 Partly Cloudy SCT090 11 2 54% 76.56 0.0
02 10:00 E 15 16.09 Mostly Cloudy BKN090 11 2 54% 76.53 0.0
02 09:41 NE 11 16.09 Overcast OVC090 10 2 58% 9 76.53 0.0
02 09:20 E 11 16.09 Overcast OVC090 10 3 62% 9 76.53 0.0
02 09:01 E 15 16.09 Overcast OVC080 9 2 62% 7 76.53 0.0
02 08:40 E 17 16.09 Mostly Cloudy SCT080 BKN090 9 2 62% 7 76.5 0.0
02 08:19 E 20 16.09 Mostly Cloudy SCT080 BKN100 8 2 66% 5 76.48 0.0
02 07:59 E 13 G 26 16.09 Overcast OVC100 7 2 71% 5 76.48 0.0
02 07:39 E 17 16.09 Overcast OVC100 6 2 76% 3 76.48 0.0
02 07:19 NE 13 16.09 Overcast OVC100 6 3 81% 4 76.48 0.0
02 07:00 NE 17 16.09 Overcast OVC100 6 3 81% 3 76.45 0.0
02 06:40 NE 15 16.09 Overcast OVC100 6 3 81% 3 76.43 0.0
02 06:21 NE 11 16.09 Overcast OVC100 6 4 87% 4 76.4 0.0
Date Time (cdt) Wind (kph) Vis. (km) Weather Sky Cond. Air Dwpt Max. Min. Relative Humidity Wind Chill (°C) Heat Index (°C) altimeter (cm) sea level (mb) 1 hr 3 hr 6 hr
6 hour
Temperature (ºC) Pressure Precipitation (cm)